Time;durP1;ratioP1;P1;durP2;ratioP2;P2;SDS_P1;SDS_P2;PMS_P1;PMS_P2;Temp;Humidity;BMP_temperature;BMP_pressure;BME280_temperature;BME280_humidity;BME280_pressure;Samples;Min_cycle;Max_cycle;Signal;HPM_P1;HPM_P2
2023/07/13 00:01:17;;;;;;;13.77;4.65;;;26.80;78.80;;;;;;5074681;28;20122;-73
2023/07/13 00:03:43;;;;;;;14.10;5.13;;;26.80;78.90;;;;;;5074867;28;20027;-73
2023/07/13 00:06:09;;;;;;;12.40;5.07;;;26.70;78.60;;;;;;5074577;28;20096;-73
2023/07/13 00:08:35;;;;;;;14.63;4.68;;;26.80;78.50;;;;;;5073752;28;20021;-73
2023/07/13 00:11:02;;;;;;;20.88;5.25;;;26.70;78.50;;;;;;5073934;28;20020;-73
2023/07/13 00:13:29;;;;;;;15.52;4.78;;;26.80;78.50;;;;;;5074404;28;20543;-73
2023/07/13 00:15:55;;;;;;;14.82;4.90;;;26.80;78.50;;;;;;5074078;28;20041;-73
2023/07/13 00:18:21;;;;;;;15.18;4.65;;;26.80;78.80;;;;;;5074237;28;20017;-73
2023/07/13 00:20:48;;;;;;;17.88;4.80;;;26.80;78.90;;;;;;5074229;28;20044;-73
2023/07/13 00:23:14;;;;;;;16.50;3.95;;;26.80;79.10;;;;;;5073866;28;20020;-73
2023/07/13 00:25:40;;;;;;;9.55;3.10;;;26.80;79.80;;;;;;5074101;28;20033;-73
2023/07/13 00:28:06;;;;;;;12.70;3.55;;;26.80;80.10;;;;;;5074036;28;20016;-72
2023/07/13 00:30:31;;;;;;;31.13;2.80;;;26.70;80.40;;;;;;5073715;28;20036;-73
2023/07/13 00:32:57;;;;;;;14.85;3.20;;;26.70;77.20;;;;;;5074031;28;20021;-73
2023/07/13 00:35:25;;;;;;;11.23;2.60;;;26.70;75.70;;;;;;5073957;28;20108;-73
2023/07/13 00:37:51;;;;;;;8.48;3.17;;;26.60;75.30;;;;;;5073855;28;20028;-73
2023/07/13 00:40:18;;;;;;;9.07;2.70;;;26.60;75.50;;;;;;5073544;28;20036;-73
2023/07/13 00:42:44;;;;;;;9.98;2.53;;;26.50;75.00;;;;;;5073711;28;20013;-73
2023/07/13 00:45:12;;;;;;;8.77;2.33;;;26.50;75.10;;;;;;5073491;28;20029;-74
2023/07/13 00:47:43;;;;;;;9.93;1.92;;;26.50;74.80;;;;;;5073753;28;20025;-73
2023/07/13 00:50:11;;;;;;;11.68;3.25;;;26.50;74.70;;;;;;5073608;28;20509;-74
2023/07/13 00:52:41;;;;;;;6.28;1.80;;;26.50;74.30;;;;;;5073541;28;20032;-73
2023/07/13 00:55:09;;;;;;;12.70;2.28;;;26.50;73.70;;;;;;5073383;28;20024;-73
2023/07/13 00:57:35;;;;;;;17.13;3.30;;;26.50;74.80;;;;;;5054925;28;20445;-73
2023/07/13 01:00:06;;;;;;;17.00;3.50;;;26.20;79.90;;;;;;5052639;28;20173;-73
2023/07/13 01:02:33;;;;;;;14.52;3.03;;;25.90;81.50;;;;;;5070598;28;20024;-74
2023/07/13 01:04:59;;;;;;;6.43;2.63;;;25.50;83.10;;;;;;5071841;28;20028;-73
2023/07/13 01:07:25;;;;;;;5.15;1.80;;;25.20;84.30;;;;;;5073324;28;20035;-73
2023/07/13 01:09:51;;;;;;;4.70;1.67;;;25.00;84.80;;;;;;5073038;28;20125;-73
2023/07/13 01:12:17;;;;;;;6.43;1.85;;;24.80;85.40;;;;;;5072761;28;20052;-73
2023/07/13 01:14:43;;;;;;;4.68;1.85;;;24.70;86.50;;;;;;5072950;28;20101;-73
2023/07/13 01:17:11;;;;;;;8.55;2.45;;;24.70;87.00;;;;;;5054496;28;20064;-73
2023/07/13 01:19:43;;;;;;;10.30;2.38;;;24.60;87.60;;;;;;5072055;28;20041;-73
2023/07/13 01:22:17;;;;;;;4.70;2.22;;;24.60;87.80;;;;;;5071396;28;20021;-73
2023/07/13 01:24:46;;;;;;;7.88;2.67;;;24.60;87.20;;;;;;5072468;28;20021;-73
2023/07/13 01:27:15;;;;;;;6.45;2.88;;;24.50;87.80;;;;;;5072260;28;20028;-73
2023/07/13 01:29:43;;;;;;;7.13;2.20;;;24.40;87.50;;;;;;5053685;28;20559;-73
2023/07/13 01:32:15;;;;;;;13.57;2.60;;;24.40;87.70;;;;;;5071994;28;20435;-73
2023/07/13 01:34:42;;;;;;;9.80;2.45;;;24.30;88.70;;;;;;5072341;28;20466;-73
2023/07/13 01:37:09;;;;;;;11.63;2.97;;;24.20;89.20;;;;;;5071833;28;20111;-73
2023/07/13 01:39:35;;;;;;;10.43;2.53;;;24.20;89.90;;;;;;5071910;28;20497;-73
2023/07/13 01:42:01;;;;;;;6.50;2.70;;;24.20;89.90;;;;;;5071752;28;20021;-73
2023/07/13 01:44:27;;;;;;;9.70;2.97;;;24.10;89.10;;;;;;5072003;28;20032;-73
2023/07/13 01:46:53;;;;;;;8.65;2.85;;;24.00;89.50;;;;;;5071948;28;20100;-73
2023/07/13 01:49:18;;;;;;;8.65;2.58;;;24.00;90.00;;;;;;5072211;28;20119;-73
2023/07/13 01:51:44;;;;;;;9.65;2.65;;;23.90;90.30;;;;;;5071966;28;20546;-73
2023/07/13 01:54:10;;;;;;;9.00;2.35;;;23.90;90.50;;;;;;5071796;28;20021;-73
2023/07/13 01:56:36;;;;;;;8.00;2.50;;;23.80;90.70;;;;;;5072066;28;20448;-73
2023/07/13 01:59:02;;;;;;;8.23;2.42;;;23.80;91.00;;;;;;5071778;28;20017;-74
2023/07/13 02:01:27;;;;;;;9.18;2.30;;;23.70;91.20;;;;;;5072061;28;20049;-73
2023/07/13 02:03:53;;;;;;;8.32;2.47;;;23.70;91.30;;;;;;5071712;28;20059;-73
2023/07/13 02:06:19;;;;;;;7.50;2.20;;;23.70;91.50;;;;;;5071551;28;20064;-73
2023/07/13 02:08:44;;;;;;;6.72;2.30;;;23.70;91.50;;;;;;5071567;28;20428;-72
2023/07/13 02:11:10;;;;;;;5.18;2.03;;;23.70;91.70;;;;;;5071668;28;20036;-73
2023/07/13 02:13:36;;;;;;;5.88;2.13;;;23.70;91.80;;;;;;5071496;28;20035;-73
2023/07/13 02:16:02;;;;;;;7.53;2.30;;;23.80;91.90;;;;;;5026602;28;1285014;-73
2023/07/13 02:18:28;;;;;;;8.77;2.10;;;23.70;91.80;;;;;;5072758;28;20021;-73
2023/07/13 02:20:53;;;;;;;9.95;2.40;;;23.80;91.90;;;;;;5072483;28;20036;-73
2023/07/13 02:23:19;;;;;;;9.88;2.40;;;23.80;91.90;;;;;;5072669;28;20059;-73
2023/07/13 02:25:45;;;;;;;7.28;2.55;;;23.90;91.60;;;;;;5072653;28;20036;-73
2023/07/13 02:28:11;;;;;;;4.93;2.05;;;24.00;91.30;;;;;;5072213;28;20543;-73
2023/07/13 02:30:38;;;;;;;8.00;2.50;;;23.90;91.20;;;;;;5072471;28;20025;-73
2023/07/13 02:33:04;;;;;;;10.13;2.95;;;23.80;91.30;;;;;;5073897;28;20021;-73
2023/07/13 02:35:30;;;;;;;7.68;2.67;;;23.70;91.40;;;;;;5075983;28;20529;-73
2023/07/13 02:37:56;;;;;;;6.63;2.75;;;23.70;91.50;;;;;;5076105;28;20028;-73
2023/07/13 02:40:22;;;;;;;12.05;2.85;;;23.60;91.70;;;;;;5075998;28;20438;-74
2023/07/13 02:42:48;;;;;;;9.07;2.58;;;23.60;91.90;;;;;;5058024;28;20044;-73
2023/07/13 02:45:14;;;;;;;7.32;2.42;;;23.60;92.00;;;;;;5075918;28;20059;-73
2023/07/13 02:47:41;;;;;;;6.70;2.42;;;23.50;91.90;;;;;;5075852;28;20029;-73
2023/07/13 02:50:07;;;;;;;6.35;2.58;;;23.50;92.00;;;;;;5075965;28;20544;-72
2023/07/13 02:52:33;;;;;;;6.07;2.28;;;23.50;92.20;;;;;;5075936;28;20063;-72
2023/07/13 02:54:59;;;;;;;7.25;2.80;;;23.50;92.20;;;;;;5075909;28;20056;-73
2023/07/13 02:57:25;;;;;;;6.13;2.78;;;23.50;92.20;;;;;;5075574;28;20127;-72
2023/07/13 02:59:50;;;;;;;8.32;2.72;;;23.50;92.20;;;;;;5075799;28;20090;-73
2023/07/13 03:02:16;;;;;;;6.45;2.40;;;23.50;92.20;;;;;;5075786;28;20482;-72
2023/07/13 03:04:42;;;;;;;7.25;2.53;;;23.50;92.20;;;;;;5075737;28;20025;-72
2023/07/13 03:07:08;;;;;;;5.30;2.35;;;23.60;92.40;;;;;;5075767;28;20032;-72
2023/07/13 03:09:35;;;;;;;9.43;2.65;;;23.60;92.50;;;;;;5075564;28;20497;-72
2023/07/13 03:12:01;;;;;;;15.10;2.42;;;23.60;92.50;;;;;;5057783;28;20409;-72
2023/07/13 03:14:27;;;;;;;9.55;3.17;;;23.60;92.60;;;;;;5075543;28;20028;-72
2023/07/13 03:16:53;;;;;;;7.90;3.80;;;23.60;92.70;;;;;;5075119;28;20056;-74
2023/07/13 03:19:19;;;;;;;8.75;2.78;;;23.60;92.60;;;;;;5075330;28;20028;-72
2023/07/13 03:21:45;;;;;;;10.95;3.15;;;23.60;92.80;;;;;;5075488;28;20025;-72
2023/07/13 03:24:11;;;;;;;6.20;3.20;;;23.60;92.70;;;;;;5075203;28;20017;-72
2023/07/13 03:26:37;;;;;;;13.73;3.13;;;23.60;92.90;;;;;;5075054;28;20048;-72
2023/07/13 03:29:02;;;;;;;8.88;2.75;;;23.60;93.00;;;;;;5075234;28;20048;-72
2023/07/13 03:31:35;;;;;;;10.75;3.25;;;23.60;93.00;;;;;;5075327;28;20091;-72
2023/07/13 03:34:01;;;;;;;8.85;3.58;;;23.60;93.00;;;;;;5075217;28;20036;-72
2023/07/13 03:36:29;;;;;;;6.85;3.47;;;23.60;93.00;;;;;;5074973;28;20024;-72
2023/07/13 03:38:58;;;;;;;8.15;3.65;;;23.60;93.00;;;;;;5075015;28;20021;-72
2023/07/13 03:41:24;;;;;;;10.35;4.50;;;23.60;93.00;;;;;;5074988;28;20060;-72
2023/07/13 03:43:51;;;;;;;8.88;3.63;;;23.60;93.00;;;;;;5075044;28;20024;-72
2023/07/13 03:46:17;;;;;;;8.23;3.80;;;23.60;93.00;;;;;;5074807;28;20120;-72
2023/07/13 03:48:45;;;;;;;9.30;4.22;;;23.60;93.00;;;;;;5075033;28;20496;-72
2023/07/13 03:51:14;;;;;;;13.45;5.00;;;23.60;93.00;;;;;;5074869;28;20021;-72
2023/07/13 03:53:41;;;;;;;9.65;4.93;;;23.60;93.00;;;;;;5074692;28;20115;-73
2023/07/13 03:56:08;;;;;;;10.57;4.47;;;23.60;93.10;;;;;;5074925;28;20045;-73
2023/07/13 03:58:36;;;;;;;14.45;5.72;;;23.60;93.10;;;;;;5074508;28;20052;-73
2023/07/13 04:01:05;;;;;;;15.10;5.47;;;23.70;93.20;;;;;;5074584;28;20036;-73
2023/07/13 04:03:32;;;;;;;9.27;3.90;;;23.70;93.30;;;;;;5074308;28;20063;-73
2023/07/13 04:06:03;;;;;;;12.20;3.40;;;23.60;93.30;;;;;;5074554;28;20021;-73
2023/07/13 04:08:31;;;;;;;6.20;2.55;;;23.70;93.20;;;;;;5074450;28;20025;-73
2023/07/13 04:10:57;;;;;;;7.78;2.42;;;23.70;93.10;;;;;;5074572;28;20021;-73
2023/07/13 04:13:24;;;;;;;10.40;2.60;;;23.70;92.90;;;;;;5074493;28;20028;-73
2023/07/13 04:15:50;;;;;;;6.30;2.13;;;23.70;92.70;;;;;;5074054;28;20478;-73
2023/07/13 04:18:16;;;;;;;6.53;2.00;;;23.60;92.60;;;;;;5074296;28;20035;-73
2023/07/13 04:20:42;;;;;;;6.32;1.67;;;23.60;92.10;;;;;;5073901;28;20389;-73
2023/07/13 04:23:08;;;;;;;5.57;2.10;;;23.60;91.90;;;;;;5073986;28;20042;-73
2023/07/13 04:25:34;;;;;;;10.63;2.08;;;23.60;91.90;;;;;;5074433;28;20048;-73
2023/07/13 04:27:59;;;;;;;10.27;2.20;;;23.60;91.90;;;;;;5074236;28;20058;-73
2023/07/13 04:30:26;;;;;;;8.60;2.08;;;23.60;91.80;;;;;;5056083;28;20111;-73
2023/07/13 04:32:52;;;;;;;6.20;1.90;;;23.60;91.70;;;;;;5073916;28;20039;-73
2023/07/13 04:35:20;;;;;;;8.25;2.25;;;23.60;91.60;;;;;;5073678;28;20031;-73
2023/07/13 04:37:49;;;;;;;7.38;1.90;;;23.60;91.70;;;;;;5074008;28;20016;-73
2023/07/13 04:40:19;;;;;;;5.40;1.92;;;23.60;91.80;;;;;;5073872;28;20044;-73
2023/07/13 04:42:45;;;;;;;8.52;2.30;;;23.60;92.00;;;;;;5073666;28;20025;-73
2023/07/13 04:45:12;;;;;;;10.40;2.20;;;23.60;92.20;;;;;;5073596;28;20393;-73
2023/07/13 04:47:38;;;;;;;7.35;1.90;;;23.60;92.30;;;;;;5073623;28;20032;-74
2023/07/13 04:50:04;;;;;;;6.53;2.20;;;23.60;92.30;;;;;;5073570;28;20109;-73
2023/07/13 04:52:30;;;;;;;11.25;2.60;;;23.60;92.30;;;;;;5055647;28;20522;-72
2023/07/13 04:54:56;;;;;;;7.15;2.20;;;23.60;92.20;;;;;;5055284;28;20056;-73
2023/07/13 04:57:22;;;;;;;8.50;2.42;;;23.60;92.30;;;;;;5073261;28;20028;-73
2023/07/13 04:59:47;;;;;;;6.65;1.88;;;23.60;92.40;;;;;;5073520;28;20040;-73
2023/07/13 05:02:13;;;;;;;6.90;2.28;;;23.60;92.30;;;;;;5073330;28;20474;-73
2023/07/13 05:04:39;;;;;;;7.40;1.92;;;23.60;92.30;;;;;;5055541;28;20382;-73
2023/07/13 05:07:06;;;;;;;7.35;1.95;;;23.60;92.40;;;;;;5073419;28;20032;-73
2023/07/13 05:09:31;;;;;;;7.10;2.65;;;23.60;92.50;;;;;;5072998;28;20047;-73
2023/07/13 05:11:57;;;;;;;8.93;2.50;;;23.60;92.50;;;;;;5073363;28;20020;-73
2023/07/13 05:14:23;;;;;;;7.35;2.15;;;23.60;92.20;;;;;;5073356;28;20032;-73
2023/07/13 05:16:49;;;;;;;7.95;2.63;;;23.60;92.20;;;;;;5073027;28;20049;-73
2023/07/13 05:19:14;;;;;;;15.90;2.42;;;23.60;92.20;;;;;;5072932;28;20020;-73
2023/07/13 05:21:41;;;;;;;5.28;2.22;;;23.60;92.20;;;;;;5073012;28;20029;-73
2023/07/13 05:24:06;;;;;;;4.90;2.08;;;23.70;92.10;;;;;;5073191;28;20409;-73
2023/07/13 05:26:32;;;;;;;5.05;1.90;;;23.70;91.90;;;;;;5072959;28;20029;-73
2023/07/13 05:28:58;;;;;;;8.25;2.05;;;23.70;91.60;;;;;;5073020;28;20029;-73
2023/07/13 05:31:24;;;;;;;10.43;2.25;;;23.70;91.50;;;;;;5073042;28;20067;-73
2023/07/13 05:33:50;;;;;;;6.15;2.50;;;23.70;91.80;;;;;;5073076;28;20031;-73
2023/07/13 05:36:15;;;;;;;8.32;2.85;;;23.70;91.80;;;;;;5054979;28;20100;-73
2023/07/13 05:38:41;;;;;;;6.32;2.40;;;23.70;91.60;;;;;;5072906;28;20089;-73
2023/07/13 05:41:07;;;;;;;6.20;2.47;;;23.80;91.40;;;;;;5072735;28;20123;-74
2023/07/13 05:43:33;;;;;;;11.00;2.80;;;23.80;91.30;;;;;;5072928;28;20020;-74
2023/07/13 05:45:59;;;;;;;13.52;2.90;;;23.80;91.30;;;;;;5072860;28;20029;-74
2023/07/13 05:48:25;;;;;;;8.25;2.10;;;23.80;91.30;;;;;;5072852;28;20059;-73
2023/07/13 05:50:50;;;;;;;9.75;2.40;;;23.90;91.40;;;;;;5072547;28;20025;-73
2023/07/13 05:53:16;;;;;;;9.90;2.40;;;23.90;91.50;;;;;;5072892;28;20048;-73
2023/07/13 05:55:50;;;;;;;8.38;2.35;;;24.00;91.60;;;;;;5072897;28;20098;-73
2023/07/13 05:58:17;;;;;;;8.63;2.47;;;24.00;91.50;;;;;;5072696;28;20099;-73
2023/07/13 06:00:43;;;;;;;11.93;2.75;;;24.00;91.50;;;;;;5072572;28;20505;-74
2023/07/13 06:03:09;;;;;;;8.95;2.90;;;24.00;91.60;;;;;;5072433;28;20024;-73
2023/07/13 06:05:38;;;;;;;10.45;2.97;;;24.10;91.80;;;;;;5072660;28;20025;-73
2023/07/13 06:08:04;;;;;;;8.73;2.90;;;24.10;91.80;;;;;;5074524;28;20024;-74
2023/07/13 06:10:33;;;;;;;8.38;2.58;;;24.20;91.80;;;;;;5076607;28;20474;-73
2023/07/13 06:12:58;;;;;;;10.70;3.08;;;24.20;91.80;;;;;;5076743;28;20351;-74
2023/07/13 06:15:24;;;;;;;9.02;3.17;;;24.30;92.00;;;;;;5076528;28;20059;-74
2023/07/13 06:17:50;;;;;;;9.98;3.33;;;24.30;91.90;;;;;;5076306;28;20048;-74
2023/07/13 06:20:16;;;;;;;11.95;3.90;;;24.30;92.00;;;;;;5076554;28;20036;-74
2023/07/13 06:22:41;;;;;;;13.85;4.20;;;24.30;92.30;;;;;;5076543;28;20082;-74
2023/07/13 06:25:08;;;;;;;13.25;3.95;;;24.40;92.40;;;;;;5076450;28;20029;-73
2023/07/13 06:27:33;;;;;;;20.75;4.43;;;24.40;92.50;;;;;;5076208;28;20039;-73
2023/07/13 06:29:59;;;;;;;16.95;4.53;;;24.50;92.60;;;;;;5076445;28;20058;-73
2023/07/13 06:32:25;;;;;;;13.35;4.60;;;24.50;92.80;;;;;;5076365;28;20100;-73
2023/07/13 06:34:51;;;;;;;10.32;4.18;;;24.50;92.80;;;;;;5076150;28;20025;-73
2023/07/13 06:37:18;;;;;;;7.85;4.03;;;24.50;92.90;;;;;;5075988;28;20497;-73
2023/07/13 06:39:44;;;;;;;14.43;4.40;;;24.60;93.00;;;;;;5076180;28;20024;-73
2023/07/13 06:42:10;;;;;;;12.82;4.50;;;24.70;93.10;;;;;;5076117;28;20074;-73
2023/07/13 06:44:36;;;;;;;14.27;4.63;;;24.70;93.20;;;;;;5058208;28;20052;-74
2023/07/13 06:47:02;;;;;;;8.85;4.15;;;24.70;93.10;;;;;;5057989;28;20052;-74
2023/07/13 06:49:28;;;;;;;13.60;4.30;;;24.70;93.10;;;;;;5075863;28;20098;-73
2023/07/13 06:51:54;;;;;;;17.35;5.22;;;24.70;93.10;;;;;;5075895;28;20024;-73
2023/07/13 06:54:19;;;;;;;9.88;4.50;;;24.80;93.10;;;;;;5075774;28;20069;-73
2023/07/13 06:56:45;;;;;;;13.68;4.32;;;24.80;93.20;;;;;;5075938;28;20028;-73
2023/07/13 06:59:11;;;;;;;15.75;3.72;;;24.80;93.20;;;;;;5075670;28;20109;-74
2023/07/13 07:01:37;;;;;;;11.13;3.15;;;24.80;93.40;;;;;;5075806;28;20050;-73
2023/07/13 07:04:03;;;;;;;10.00;3.30;;;24.90;93.30;;;;;;5075644;28;20025;-73
2023/07/13 07:06:29;;;;;;;13.85;3.53;;;24.90;93.10;;;;;;5075729;28;20025;-73
2023/07/13 07:08:55;;;;;;;11.90;4.43;;;24.90;93.00;;;;;;5075750;28;20013;-74
2023/07/13 07:11:23;;;;;;;12.75;3.70;;;24.90;93.00;;;;;;5075287;28;20063;-73
2023/07/13 07:13:51;;;;;;;11.85;3.58;;;25.00;92.70;;;;;;5075638;28;20099;-73
2023/07/13 07:16:17;;;;;;;11.82;2.90;;;25.00;92.60;;;;;;5075448;28;20560;-73
2023/07/13 07:18:43;;;;;;;10.55;2.92;;;25.00;92.50;;;;;;5074984;28;20378;-73
2023/07/13 07:21:09;;;;;;;7.95;2.63;;;25.00;92.40;;;;;;5075311;28;20558;-73
2023/07/13 07:23:35;;;;;;;7.93;3.30;;;25.10;92.00;;;;;;5075288;28;20099;-74
2023/07/13 07:26:01;;;;;;;8.70;3.35;;;25.10;91.90;;;;;;5075278;28;20458;-74
2023/07/13 07:28:28;;;;;;;11.35;4.10;;;25.20;92.00;;;;;;5075262;28;20104;-73
2023/07/13 07:30:55;;;;;;;13.02;3.47;;;25.20;92.00;;;;;;5075297;28;20029;-73
2023/07/13 07:33:21;;;;;;;13.52;3.47;;;25.20;92.00;;;;;;5075143;28;20066;-73
2023/07/13 07:35:47;;;;;;;10.45;3.42;;;25.30;91.90;;;;;;5075169;28;20036;-73
2023/07/13 07:38:13;;;;;;;6.50;2.83;;;25.40;92.00;;;;;;5075257;28;20048;-73
2023/07/13 07:40:40;;;;;;;12.32;3.60;;;25.40;92.00;;;;;;5074914;28;20063;-73
2023/07/13 07:43:06;;;;;;;10.73;3.72;;;25.40;91.90;;;;;;5074857;28;20099;-73
2023/07/13 07:45:32;;;;;;;12.68;3.38;;;25.50;91.90;;;;;;5075042;28;20107;-73
2023/07/13 07:47:59;;;;;;;8.90;3.28;;;25.50;91.80;;;;;;5074784;28;20158;-73
2023/07/13 07:50:28;;;;;;;9.32;3.25;;;25.50;91.50;;;;;;5074844;28;20031;-73
2023/07/13 07:52:55;;;;;;;10.10;3.13;;;25.60;91.50;;;;;;5074728;28;20066;-73
2023/07/13 07:55:22;;;;;;;11.93;3.10;;;25.60;91.40;;;;;;5074690;28;20192;-73
2023/07/13 07:57:48;;;;;;;8.68;3.47;;;25.60;91.30;;;;;;5056909;28;20025;-73
2023/07/13 08:00:15;;;;;;;9.48;3.60;;;25.60;91.10;;;;;;5074745;28;20048;-73
2023/07/13 08:02:41;;;;;;;8.27;3.35;;;25.70;90.90;;;;;;5056693;28;20021;-73
2023/07/13 08:05:08;;;;;;;11.00;3.42;;;25.70;90.90;;;;;;5074581;28;20107;-73
2023/07/13 08:07:34;;;;;;;13.98;3.47;;;25.70;91.00;;;;;;5074102;28;20078;-73
2023/07/13 08:10:00;;;;;;;8.23;3.60;;;25.70;90.80;;;;;;5074539;28;20028;-73
2023/07/13 08:12:26;;;;;;;9.68;3.65;;;25.70;90.80;;;;;;5074309;28;20042;-73
2023/07/13 08:14:53;;;;;;;7.35;3.42;;;25.80;91.00;;;;;;5074551;28;20032;-73
2023/07/13 08:17:20;;;;;;;15.90;4.20;;;25.80;91.00;;;;;;5074105;28;20048;-72
2023/07/13 08:19:45;;;;;;;9.45;3.38;;;25.80;90.70;;;;;;5074388;28;20035;-73
2023/07/13 08:22:11;;;;;;;10.15;3.35;;;25.90;90.30;;;;;;5074167;28;20029;-73
2023/07/13 08:24:37;;;;;;;10.18;3.97;;;25.90;90.30;;;;;;5073995;28;20183;-72
2023/07/13 08:27:03;;;;;;;7.60;3.30;;;25.90;90.40;;;;;;5073909;28;20066;-73
2023/07/13 08:29:31;;;;;;;11.63;3.50;;;25.90;90.60;;;;;;5073842;28;20073;-73
2023/07/13 08:31:57;;;;;;;8.82;3.50;;;26.00;90.60;;;;;;5073715;28;20031;-73
2023/07/13 08:34:23;;;;;;;12.30;3.45;;;26.00;90.40;;;;;;5074143;28;20017;-73
2023/07/13 08:36:49;;;;;;;12.52;3.60;;;26.00;90.20;;;;;;5073757;28;20029;-73
2023/07/13 08:39:15;;;;;;;13.60;3.42;;;26.00;90.20;;;;;;5073644;28;20121;-73
2023/07/13 08:41:40;;;;;;;6.97;3.67;;;26.10;90.40;;;;;;5073653;28;20098;-73
2023/07/13 08:44:18;;;;;;;10.35;3.72;;;26.10;90.60;;;;;;5073612;28;20043;-73
2023/07/13 08:46:45;;;;;;;18.17;4.13;;;26.10;90.80;;;;;;5073516;28;20025;-73
2023/07/13 08:49:15;;;;;;;13.65;3.80;;;26.10;90.70;;;;;;5073592;28;20029;-73
2023/07/13 08:51:45;;;;;;;13.70;3.40;;;26.10;90.70;;;;;;5073787;28;20089;-73
2023/07/13 08:54:30;;;;;;;14.85;3.60;;;26.10;90.60;;;;;;5073480;28;20020;-73
2023/07/13 08:56:58;;;;;;;10.65;3.70;;;26.10;90.50;;;;;;5073427;28;20471;-72
2023/07/13 08:59:31;;;;;;;12.35;4.13;;;26.10;90.50;;;;;;5073531;28;20096;-73
2023/07/13 09:02:18;;;;;;;14.57;3.40;;;26.10;90.50;;;;;;5073273;28;20020;-73
2023/07/13 09:05:03;;;;;;;10.82;3.50;;;26.10;90.50;;;;;;5073465;28;20017;-73
2023/07/13 09:07:40;;;;;;;8.50;3.30;;;26.20;90.60;;;;;;5055479;28;20027;-73
2023/07/13 09:10:09;;;;;;;7.78;3.35;;;26.20;90.40;;;;;;5073195;28;20025;-73
2023/07/13 09:12:59;;;;;;;12.35;3.80;;;26.20;90.40;;;;;;5073402;28;20474;-73
2023/07/13 09:15:38;;;;;;;7.20;3.80;;;26.20;90.60;;;;;;5081560;22;20024;-73
2023/07/13 09:18:24;;;;;;;9.73;3.85;;;26.20;90.60;;;;;;5052550;28;20033;-73
2023/07/13 09:20:57;;;;;;;14.02;4.03;;;26.20;90.60;;;;;;5053276;28;20094;-73
2023/07/13 09:23:25;;;;;;;11.18;4.43;;;26.20;90.50;;;;;;5035279;28;20078;-72
2023/07/13 09:26:02;;;;;;;9.00;4.30;;;26.20;90.50;;;;;;5053027;28;20571;-72
2023/07/13 09:28:33;;;;;;;11.57;4.60;;;26.20;90.50;;;;;;5053132;28;20024;-73
2023/07/13 09:31:40;;;;;;;11.45;4.63;;;26.20;90.40;;;;;;5052880;28;20025;-72
2023/07/13 09:34:10;;;;;;;7.10;4.40;;;26.30;90.50;;;;;;5052911;28;20029;-72
2023/07/13 09:36:36;;;;;;;7.68;4.50;;;26.30;90.60;;;;;;5053052;28;20025;-73
2023/07/13 09:39:07;;;;;;;13.90;4.65;;;26.30;90.40;;;;;;5052831;28;20033;-72
2023/07/13 09:41:45;;;;;;;;;;;26.40;90.50;;;;;;5035473;28;20179;-72
2023/07/13 09:44:16;;;;;;;8.95;4.25;;;26.40;90.60;;;;;;5053016;28;19912;-72
2023/07/13 09:46:52;;;;;;;8.50;4.28;;;26.50;90.70;;;;;;5052965;28;20013;-73
2023/07/13 09:49:17;;;;;;;9.05;4.30;;;26.50;90.60;;;;;;5052709;28;20502;-73
2023/07/13 09:51:44;;;;;;;9.32;4.03;;;26.50;90.60;;;;;;5052753;28;20043;-73
2023/07/13 09:54:25;;;;;;;12.60;4.82;;;26.50;90.60;;;;;;5052735;28;20035;-72
2023/07/13 09:56:58;;;;;;;7.15;3.92;;;26.50;90.40;;;;;;5052847;28;20363;-72
2023/07/13 09:59:30;;;;;;;7.85;4.07;;;26.50;90.30;;;;;;5052892;28;20489;-72
2023/07/13 10:01:56;;;;;;;8.00;4.30;;;26.50;90.30;;;;;;5052816;28;20028;-73
2023/07/13 10:04:30;;;;;;;7.47;4.30;;;26.50;90.20;;;;;;5052778;28;20111;-72
2023/07/13 10:07:07;;;;;;;9.23;4.28;;;26.50;90.20;;;;;;5052679;28;20021;-73
2023/07/13 10:09:33;;;;;;;10.02;4.45;;;26.50;90.40;;;;;;5052751;28;20025;-72
2023/07/13 10:11:59;;;;;;;11.00;4.45;;;26.50;90.40;;;;;;5052899;28;20402;-73
2023/07/13 10:14:26;;;;;;;15.57;4.68;;;26.60;90.40;;;;;;5052604;28;20018;-73
2023/07/13 10:17:04;;;;;;;17.27;4.47;;;26.60;90.20;;;;;;5052568;28;20049;-73
2023/07/13 10:19:34;;;;;;;10.23;4.50;;;26.70;90.20;;;;;;5052429;28;20541;-73
2023/07/13 10:22:26;;;;;;;8.75;4.38;;;26.70;90.10;;;;;;5052764;28;20363;-73
2023/07/13 10:24:52;;;;;;;13.82;4.47;;;26.70;90.10;;;;;;5052629;28;20025;-73
2023/07/13 10:27:25;;;;;;;8.48;4.15;;;26.70;90.00;;;;;;5052637;28;20025;-72
2023/07/13 10:30:23;;;;;;;9.30;4.60;;;26.80;90.10;;;;;;5052456;28;20032;-72
2023/07/13 10:32:50;;;;;;;12.82;4.60;;;26.90;90.10;;;;;;5051190;28;20036;-73
2023/07/13 10:35:21;;;;;;;9.57;4.43;;;26.90;89.80;;;;;;5052567;28;20036;-72
2023/07/13 10:38:09;;;;;;;10.75;4.25;;;26.90;89.30;;;;;;5052213;28;20029;-73
2023/07/13 10:40:42;;;;;;;10.75;5.57;;;27.00;90.00;;;;;;5052376;28;20029;-73
2023/07/13 10:43:36;;;;;;;15.75;4.97;;;27.00;89.50;;;;;;5052161;28;20017;-73
2023/07/13 10:46:03;;;;;;;17.67;6.25;;;27.00;89.40;;;;;;5052291;28;20040;-73
2023/07/13 10:48:32;;;;;;;12.98;5.45;;;27.00;88.90;;;;;;5052375;28;20029;-72
2023/07/13 10:51:01;;;;;;;14.45;5.40;;;27.10;88.80;;;;;;5052177;28;20087;-72
2023/07/13 10:53:37;;;;;;;15.57;5.90;;;27.10;88.80;;;;;;5052600;28;20017;-72
2023/07/13 10:56:21;;;;;;;16.50;5.82;;;27.20;88.80;;;;;;5055998;28;20429;-73
2023/07/13 10:58:47;;;;;;;17.42;5.75;;;27.10;89.10;;;;;;5055853;28;20025;-73
2023/07/13 11:01:17;;;;;;;16.08;5.18;;;27.10;89.10;;;;;;5055724;28;20082;-72
2023/07/13 11:03:53;;;;;;;16.50;6.05;;;27.20;89.40;;;;;;5055608;28;20025;-73
2023/07/13 11:06:25;;;;;;;12.98;5.72;;;27.10;89.30;;;;;;5055702;28;20075;-73
2023/07/13 11:08:52;;;;;;;16.92;6.80;;;27.10;89.40;;;;;;5055773;28;20521;-73
2023/07/13 11:11:24;;;;;;;12.38;5.97;;;27.10;89.20;;;;;;5055843;28;20025;-73
2023/07/13 11:13:50;;;;;;;16.10;6.55;;;27.10;89.40;;;;;;5055698;28;20033;-73
2023/07/13 11:16:24;;;;;;;12.30;6.50;;;27.10;89.60;;;;;;5055400;28;20072;-72
2023/07/13 11:19:31;;;;;;;15.18;6.72;;;27.10;90.00;;;;;;5055677;28;20028;-73
2023/07/13 11:22:09;;;;;;;14.52;6.47;;;27.10;90.30;;;;;;5055531;28;20025;-73
2023/07/13 11:24:58;;;;;;;20.70;6.85;;;27.10;90.40;;;;;;5055379;28;20028;-72
2023/07/13 11:27:43;;;;;;;18.08;6.30;;;27.10;90.40;;;;;;5055359;28;20025;-72
2023/07/13 11:30:18;;;;;;;16.70;5.95;;;27.10;90.40;;;;;;5037607;28;20454;-73
2023/07/13 11:32:44;;;;;;;12.77;5.47;;;27.10;90.50;;;;;;5055372;28;20120;-73
2023/07/13 11:35:20;;;;;;;12.55;5.38;;;27.00;90.60;;;;;;5055188;28;20053;-73
2023/07/13 11:37:47;;;;;;;11.05;5.28;;;27.10;90.70;;;;;;5037269;28;20040;-73
2023/07/13 11:40:14;;;;;;;9.63;4.95;;;27.10;90.50;;;;;;5055034;28;20033;-73
2023/07/13 11:42:40;;;;;;;12.55;5.43;;;27.00;90.30;;;;;;5055291;28;20103;-73
2023/07/13 11:45:22;;;;;;;11.07;4.90;;;27.00;90.30;;;;;;5055296;28;20104;-73
2023/07/13 11:47:48;;;;;;;;;;;27.10;90.10;;;;;;5055326;28;20029;-73
2023/07/13 11:50:22;;;;;;;12.35;4.95;;;27.10;90.00;;;;;;5055047;28;19911;-73
2023/07/13 11:52:51;;;;;;;9.82;5.35;;;27.10;90.20;;;;;;5054772;28;20025;-73
2023/07/13 11:55:19;;;;;;;12.32;4.47;;;27.10;90.10;;;;;;5055178;28;20446;-73
2023/07/13 11:57:59;;;;;;;8.68;4.68;;;27.10;90.00;;;;;;5054946;28;20031;-73
2023/07/13 12:00:29;;;;;;;16.20;5.07;;;27.10;90.30;;;;;;5054849;28;20029;-73
2023/07/13 12:02:59;;;;;;;12.95;5.22;;;27.20;90.30;;;;;;5054642;28;20104;-73
2023/07/13 12:05:25;;;;;;;20.83;5.63;;;27.20;90.10;;;;;;5053366;28;20070;-73
2023/07/13 12:07:51;;;;;;;12.63;5.15;;;27.20;90.00;;;;;;5036667;28;20029;-73
2023/07/13 12:10:32;;;;;;;14.52;6.13;;;27.30;89.10;;;;;;5054645;28;20045;-73
2023/07/13 12:13:03;;;;;;;19.10;5.38;;;27.40;88.90;;;;;;5054581;28;20024;-73
2023/07/13 12:15:41;;;;;;;15.18;5.75;;;27.40;89.00;;;;;;5054314;28;20064;-73
2023/07/13 12:18:22;;;;;;;15.00;6.03;;;27.50;88.50;;;;;;5054448;28;20060;-73
2023/07/13 12:20:49;;;;;;;16.17;6.57;;;27.70;87.70;;;;;;5054261;28;20040;-73
2023/07/13 12:23:27;;;;;;;9.23;5.90;;;27.80;87.70;;;;;;5036154;28;20025;-74
2023/07/13 12:25:54;;;;;;;12.85;6.30;;;27.90;87.40;;;;;;5054030;28;20033;-73
2023/07/13 12:28:35;;;;;;;17.70;5.68;;;28.00;87.50;;;;;;5054230;28;20096;-73
2023/07/13 12:31:25;;;;;;;13.70;6.32;;;28.10;87.30;;;;;;5054364;28;20454;-73
2023/07/13 12:33:58;;;;;;;18.63;7.13;;;28.20;87.30;;;;;;5054274;28;20041;-72
2023/07/13 12:36:25;;;;;;;18.55;6.28;;;28.30;87.40;;;;;;5053870;28;20581;-73
2023/07/13 12:38:51;;;;;;;12.93;6.32;;;28.30;87.10;;;;;;5054152;28;20025;-73
2023/07/13 12:41:17;;;;;;;22.90;8.35;;;28.40;86.90;;;;;;5053966;28;20033;-73
2023/07/13 12:43:45;;;;;;;15.00;7.00;;;28.50;86.00;;;;;;5054032;28;20100;-74
2023/07/13 12:46:20;;;;;;;18.15;6.97;;;28.50;86.50;;;;;;5053527;28;20025;-73
2023/07/13 12:48:52;;;;;;;19.33;6.55;;;28.50;87.20;;;;;;5053587;28;20052;-74
2023/07/13 12:51:22;;;;;;;19.98;6.65;;;28.60;87.90;;;;;;5053902;28;20041;-73